createdAt,value
2023-04-27T00:00:13.495Z,51.78
2023-04-27T00:02:43.283Z,51.84
2023-04-27T00:05:13.419Z,52.11
2023-04-27T00:07:42.144Z,51.92
2023-04-27T00:10:11.315Z,51.94
2023-04-27T00:12:39.786Z,52.11
2023-04-27T00:15:09.711Z,52.25
2023-04-27T00:17:38.451Z,52.99
2023-04-27T00:20:11.996Z,52.71
2023-04-27T00:22:40.289Z,52.56
2023-04-27T00:25:09.144Z,52.48
2023-04-27T00:27:37.415Z,52.41
2023-04-27T00:30:06.751Z,52.36
2023-04-27T00:32:35.164Z,52.45
2023-04-27T00:35:03.419Z,52.55
2023-04-27T00:37:33.090Z,52.30
2023-04-27T00:40:01.368Z,52.36
2023-04-27T00:42:30.097Z,52.65
2023-04-27T00:44:59.118Z,52.61
2023-04-27T00:47:27.704Z,52.79
2023-04-27T00:49:56.056Z,52.91
2023-04-27T00:52:27.373Z,52.75
2023-04-27T00:54:58.983Z,52.86
2023-04-27T00:57:27.328Z,53.20
2023-04-27T00:59:55.695Z,53.30
2023-04-27T01:02:24.235Z,53.26
2023-04-27T01:04:53.494Z,53.07
2023-04-27T01:07:26.892Z,52.65
2023-04-27T01:09:56.734Z,52.65
2023-04-27T01:12:25.208Z,52.52
2023-04-27T01:14:53.520Z,52.84
2023-04-27T01:17:22.063Z,53.33
2023-04-27T01:19:51.552Z,53.46
2023-04-27T01:22:19.837Z,53.43
2023-04-27T01:24:52.863Z,52.98
2023-04-27T01:27:21.157Z,53.23
2023-04-27T01:29:49.722Z,54.06
2023-04-27T01:32:18.075Z,53.83
2023-04-27T01:34:46.415Z,53.70
2023-04-27T01:37:15.851Z,53.56
2023-04-27T01:39:44.766Z,53.43
2023-04-27T01:42:14.396Z,53.28
2023-04-27T01:44:42.693Z,53.30
2023-04-27T01:47:11.121Z,53.39
2023-04-27T01:49:39.476Z,53.46
2023-04-27T01:52:07.949Z,53.65
2023-04-27T01:54:36.355Z,53.76
2023-04-27T01:57:04.809Z,53.84
2023-04-27T01:59:36.099Z,53.91
2023-04-27T02:02:05.509Z,53.94
2023-04-27T02:04:34.074Z,53.86
2023-04-27T02:07:02.472Z,53.79
2023-04-27T02:09:30.753Z,53.79
2023-04-27T02:11:59.111Z,53.81
2023-04-27T02:14:27.513Z,53.81
2023-04-27T02:16:57.175Z,53.66
2023-04-27T02:19:25.431Z,53.71
2023-04-27T02:21:53.806Z,53.63
2023-04-27T02:24:22.063Z,53.43
2023-04-27T02:26:50.567Z,53.39
2023-04-27T02:29:19.992Z,53.31
2023-04-27T02:31:48.693Z,53.23
2023-04-27T02:34:18.095Z,53.21
2023-04-27T02:36:46.128Z,52.98
2023-04-27T02:39:14.389Z,52.80
2023-04-27T02:41:42.620Z,52.73
2023-04-27T02:44:10.713Z,52.69
2023-04-27T02:46:38.840Z,52.67
2023-04-27T02:49:08.112Z,52.56
2023-04-27T02:51:37.515Z,52.37
2023-04-27T02:54:05.884Z,52.33
2023-04-27T02:56:33.910Z,52.24
2023-04-27T02:59:02.083Z,52.17
2023-04-27T03:01:30.238Z,52.09
2023-04-27T03:03:58.483Z,52.14
2023-04-27T03:06:27.711Z,52.17
2023-04-27T03:08:57.176Z,52.15
2023-04-27T03:11:25.253Z,52.14
2023-04-27T03:13:54.044Z,52.13
2023-04-27T03:16:22.110Z,52.12
2023-04-27T03:18:50.173Z,52.15
2023-04-27T03:21:18.230Z,52.13
2023-04-27T03:23:46.330Z,52.08
2023-04-27T03:26:16.069Z,51.99
2023-04-27T03:28:44.151Z,52.01
2023-04-27T03:31:13.301Z,51.95
2023-04-27T03:33:42.529Z,51.95
2023-04-27T03:36:11.738Z,51.99
2023-04-27T03:38:42.917Z,52.11
2023-04-27T03:41:11.711Z,52.27
2023-04-27T03:43:41.153Z,52.42
2023-04-27T03:46:09.860Z,52.45
2023-04-27T03:48:38.697Z,52.54
2023-04-27T03:51:07.350Z,52.75
2023-04-27T03:53:35.789Z,52.84
2023-04-27T03:56:04.346Z,52.90
2023-04-27T03:58:32.503Z,52.94
2023-04-27T04:01:11.827Z,53.05
2023-04-27T04:03:40.335Z,53.20
2023-04-27T04:06:09.988Z,53.30
2023-04-27T04:08:38.255Z,53.39
2023-04-27T04:11:06.480Z,53.42
2023-04-27T04:13:36.689Z,53.50
2023-04-27T04:16:06.568Z,53.53
2023-04-27T04:18:36.970Z,53.52
2023-04-27T04:21:06.389Z,53.58
2023-04-27T04:23:34.462Z,53.72
2023-04-27T04:26:03.069Z,53.89
2023-04-27T04:28:35.017Z,54.05
2023-04-27T04:31:05.665Z,54.10
2023-04-27T04:33:34.257Z,54.13
2023-04-27T04:36:06.670Z,54.01
2023-04-27T04:38:35.498Z,54.11
2023-04-27T04:41:03.662Z,54.24
2023-04-27T04:43:34.409Z,54.30
2023-04-27T04:46:06.471Z,54.31
2023-04-27T04:48:35.599Z,54.28
2023-04-27T04:51:06.048Z,54.31
2023-04-27T04:53:34.823Z,54.32
2023-04-27T04:56:10.782Z,54.07
2023-04-27T04:58:39.024Z,54.45
2023-04-27T05:01:07.512Z,54.52
2023-04-27T05:03:35.797Z,54.62
2023-04-27T05:06:03.924Z,54.75
2023-04-27T05:08:33.382Z,54.88
2023-04-27T05:11:01.438Z,55.18
2023-04-27T05:13:29.652Z,55.46
2023-04-27T05:15:57.711Z,55.69
2023-04-27T05:18:25.827Z,55.84
2023-04-27T05:20:53.831Z,56.03
2023-04-27T05:23:21.848Z,56.53
2023-04-27T05:25:51.728Z,56.67
2023-04-27T05:28:19.897Z,56.66
2023-04-27T05:30:47.995Z,56.90
2023-04-27T05:33:16.129Z,56.93
2023-04-27T05:35:44.195Z,57.08
2023-04-27T05:38:15.113Z,57.55
2023-04-27T05:40:43.150Z,57.74
2023-04-27T05:43:12.631Z,57.80
2023-04-27T05:45:41.817Z,58.16
2023-04-27T05:48:10.024Z,58.10
2023-04-27T05:50:38.092Z,57.94
2023-04-27T05:53:06.165Z,58.10
2023-04-27T05:55:34.188Z,57.89
2023-04-27T05:58:08.389Z,57.80
2023-04-27T06:00:38.851Z,57.66
2023-04-27T06:03:07.251Z,57.60
2023-04-27T06:05:35.632Z,57.64
2023-04-27T06:08:03.763Z,57.81
2023-04-27T06:10:31.847Z,57.80
2023-04-27T06:12:59.890Z,57.76
2023-04-27T06:15:27.986Z,57.61
2023-04-27T06:17:57.500Z,57.49
2023-04-27T06:20:25.897Z,57.39
2023-04-27T06:22:53.914Z,57.34
2023-04-27T06:25:22.825Z,57.21
2023-04-27T06:27:52.418Z,57.16
2023-04-27T06:30:20.520Z,56.94
2023-04-27T06:32:48.638Z,56.96
2023-04-27T06:35:18.375Z,56.85
2023-04-27T06:37:47.291Z,56.81
2023-04-27T06:40:15.486Z,56.50
2023-04-27T06:42:43.521Z,56.35
2023-04-27T06:45:12.436Z,56.13
2023-04-27T06:47:40.521Z,55.79
2023-04-27T06:50:09.667Z,55.45
2023-04-27T06:52:39.057Z,55.01
2023-04-27T06:55:08.013Z,54.64
2023-04-27T06:57:36.418Z,54.40
2023-04-27T07:00:05.118Z,53.89
2023-04-27T07:02:33.262Z,53.94
2023-04-27T07:05:01.420Z,53.64
2023-04-27T07:07:29.523Z,53.10
2023-04-27T07:09:59.133Z,52.61
2023-04-27T07:12:27.183Z,51.98
2023-04-27T07:14:55.750Z,51.93
2023-04-27T07:17:23.822Z,51.40
2023-04-27T07:19:51.875Z,50.67
2023-04-27T07:22:20.142Z,49.26
2023-04-27T07:24:48.420Z,47.81
2023-04-27T07:27:18.319Z,46.56
2023-04-27T07:29:46.392Z,45.92
2023-04-27T07:32:14.960Z,45.77
2023-04-27T07:34:52.701Z,45.28
2023-04-27T07:37:22.468Z,43.45
2023-04-27T07:39:52.004Z,42.89
2023-04-27T07:42:23.662Z,42.54
2023-04-27T07:44:52.372Z,42.03
2023-04-27T07:47:20.589Z,41.81
2023-04-27T07:49:48.651Z,41.38
2023-04-27T07:52:16.804Z,40.97
2023-04-27T07:54:44.897Z,40.46
2023-04-27T07:57:12.991Z,39.07
2023-04-27T07:59:42.392Z,37.79
2023-04-27T08:02:18.315Z,37.70
2023-04-27T08:04:48.792Z,38.17
2023-04-27T08:07:19.288Z,38.29
2023-04-27T08:09:47.943Z,37.37
2023-04-27T08:12:16.013Z,37.58
2023-04-27T08:14:45.421Z,35.88
2023-04-27T08:17:13.551Z,36.92
2023-04-27T08:19:42.238Z,36.64
2023-04-27T08:22:10.518Z,35.76
2023-04-27T08:24:38.583Z,36.34
2023-04-27T08:27:07.301Z,34.49
2023-04-27T08:29:35.444Z,35.41
2023-04-27T08:32:05.757Z,34.68
2023-04-27T08:34:33.786Z,33.31
2023-04-27T08:37:03.317Z,32.80
2023-04-27T08:39:31.321Z,32.67
2023-04-27T08:41:59.390Z,34.35
2023-04-27T08:44:27.505Z,34.58
2023-04-27T08:46:55.548Z,34.77
2023-04-27T08:49:24.934Z,34.15
2023-04-27T08:51:52.999Z,34.31
2023-04-27T08:54:21.894Z,34.80
2023-04-27T08:56:49.959Z,33.34
2023-04-27T08:59:18.556Z,33.16
2023-04-27T09:01:48.646Z,34.18
2023-04-27T09:04:17.899Z,33.88
2023-04-27T09:06:49.076Z,33.28
2023-04-27T09:09:24.508Z,31.94
2023-04-27T09:11:52.556Z,31.97
2023-04-27T09:14:21.881Z,30.22
2023-04-27T09:16:57.381Z,29.87
2023-04-27T09:19:26.528Z,29.28
2023-04-27T09:22:10.811Z,28.36
2023-04-27T09:24:39.295Z,29.36
2023-04-27T09:27:20.160Z,30.15
2023-04-27T09:29:48.237Z,29.17
2023-04-27T09:32:17.916Z,28.32
2023-04-27T09:34:46.469Z,28.13
2023-04-27T09:37:16.636Z,27.81
2023-04-27T09:39:46.164Z,27.07
2023-04-27T09:42:15.923Z,26.65
2023-04-27T09:44:44.026Z,26.19
2023-04-27T09:47:14.662Z,27.03
2023-04-27T09:49:42.914Z,25.76
2023-04-27T09:52:11.643Z,26.47
2023-04-27T09:54:42.207Z,26.21
2023-04-27T09:57:32.264Z,25.81
2023-04-27T10:00:11.154Z,25.17
2023-04-27T10:02:53.620Z,25.04
2023-04-27T10:05:44.953Z,25.97
2023-04-27T10:08:13.220Z,26.14
2023-04-27T10:10:49.575Z,25.70
2023-04-27T10:13:24.939Z,26.11
2023-04-27T10:15:53.191Z,27.06
2023-04-27T10:18:28.823Z,27.04
2023-04-27T10:20:57.018Z,27.58
2023-04-27T10:23:26.584Z,27.46
2023-04-27T10:25:57.325Z,27.59
2023-04-27T10:28:25.414Z,27.79
2023-04-27T10:30:53.617Z,27.86
2023-04-27T10:33:24.193Z,28.48
2023-04-27T10:35:56.958Z,28.76
2023-04-27T10:38:29.836Z,28.24
2023-04-27T10:41:01.901Z,28.09
2023-04-27T10:43:31.321Z,27.77
2023-04-27T10:46:09.304Z,27.32
2023-04-27T10:48:37.472Z,28.03
2023-04-27T10:51:06.487Z,27.99
2023-04-27T10:53:38.745Z,27.77
2023-04-27T10:56:08.687Z,27.87
2023-04-27T11:01:10.160Z,28.61
2023-04-27T11:03:39.066Z,28.08
2023-04-27T11:06:08.794Z,28.47
2023-04-27T11:08:45.503Z,28.44
2023-04-27T11:11:18.250Z,28.39
2023-04-27T11:13:49.422Z,28.79
2023-04-27T11:16:19.454Z,29.10
2023-04-27T11:18:47.578Z,29.58
2023-04-27T11:21:17.304Z,28.60
2023-04-27T11:23:45.549Z,29.21
2023-04-27T11:26:14.907Z,28.77
2023-04-27T11:28:45.776Z,29.00
2023-04-27T11:31:14.072Z,28.84
2023-04-27T11:33:49.425Z,27.68
2023-04-27T11:36:18.445Z,27.70
2023-04-27T11:38:47.613Z,26.47
2023-04-27T11:41:19.604Z,27.26
2023-04-27T11:43:49.970Z,27.71
2023-04-27T11:46:23.687Z,27.14
2023-04-27T11:48:51.941Z,26.97
2023-04-27T11:51:20.521Z,27.39
2023-04-27T11:53:51.329Z,27.41
2023-04-27T11:56:19.503Z,27.78
2023-04-27T11:58:49.168Z,28.68
2023-04-27T12:01:24.851Z,28.65
2023-04-27T12:04:03.475Z,29.09
2023-04-27T12:06:33.873Z,28.78
2023-04-27T12:09:02.292Z,28.22
2023-04-27T12:11:30.467Z,27.78
2023-04-27T12:13:59.930Z,27.32
2023-04-27T12:16:28.420Z,27.44
2023-04-27T12:18:56.533Z,26.94
2023-04-27T12:21:24.617Z,26.88
2023-04-27T12:23:53.002Z,26.95
2023-04-27T12:26:21.570Z,26.96
2023-04-27T12:28:49.648Z,27.10
2023-04-27T12:31:24.720Z,27.82
2023-04-27T12:33:54.170Z,26.49
2023-04-27T12:36:22.187Z,26.67
2023-04-27T12:38:50.261Z,27.50
2023-04-27T12:41:18.563Z,26.69
2023-04-27T12:43:46.850Z,27.18
2023-04-27T12:46:14.913Z,26.16
2023-04-27T12:48:45.100Z,26.59
2023-04-27T12:51:13.651Z,25.62
2023-04-27T12:53:41.974Z,25.43
2023-04-27T12:56:10.100Z,25.14
2023-04-27T12:58:38.127Z,25.99
2023-04-27T13:01:07.777Z,25.51
2023-04-27T13:03:36.617Z,25.80
2023-04-27T13:06:09.466Z,25.89
2023-04-27T13:08:39.120Z,26.37
2023-04-27T13:11:07.261Z,24.92
2023-04-27T13:13:35.871Z,25.95
2023-04-27T13:16:04.375Z,25.27
2023-04-27T13:18:34.924Z,25.47
2023-04-27T13:21:04.107Z,25.01
2023-04-27T13:23:33.704Z,25.20
2023-04-27T13:26:02.280Z,23.82
2023-04-27T13:28:30.331Z,23.94
2023-04-27T13:31:00.110Z,23.77
2023-04-27T13:33:28.456Z,22.92
2023-04-27T13:35:56.586Z,22.69
2023-04-27T13:38:24.744Z,22.92
2023-04-27T13:40:54.937Z,23.21
2023-04-27T13:43:23.020Z,23.59
2023-04-27T13:45:52.572Z,23.62
2023-04-27T13:48:20.710Z,24.11
2023-04-27T13:50:48.963Z,23.67
2023-04-27T13:53:17.347Z,23.70
2023-04-27T13:55:45.822Z,24.36
2023-04-27T13:58:15.226Z,23.72
2023-04-27T14:00:43.306Z,22.82
2023-04-27T14:03:12.026Z,22.94
2023-04-27T14:05:40.328Z,23.99
2023-04-27T14:08:08.319Z,23.83
2023-04-27T14:10:37.618Z,24.74
2023-04-27T14:13:06.055Z,23.43
2023-04-27T14:15:37.358Z,23.46
2023-04-27T14:18:07.721Z,24.38
2023-04-27T14:20:36.402Z,24.30
2023-04-27T14:23:05.267Z,25.22
2023-04-27T14:25:34.578Z,25.35
2023-04-27T14:28:03.957Z,24.84
2023-04-27T14:30:32.769Z,24.82
2023-04-27T14:33:02.374Z,24.92
2023-04-27T14:35:30.557Z,26.30
2023-04-27T14:38:02.340Z,25.39
2023-04-27T14:40:30.710Z,25.55
2023-04-27T14:42:59.452Z,24.99
2023-04-27T14:45:36.665Z,24.47
2023-04-27T14:48:13.459Z,23.86
2023-04-27T14:50:43.451Z,23.86
2023-04-27T14:53:11.658Z,25.36
2023-04-27T14:55:41.148Z,24.09
2023-04-27T14:58:09.309Z,24.14
2023-04-27T15:00:37.313Z,24.44
2023-04-27T15:03:05.721Z,25.15
2023-04-27T15:05:35.267Z,24.43
2023-04-27T15:08:03.796Z,25.04
2023-04-27T15:10:32.004Z,25.01
2023-04-27T15:12:59.996Z,26.65
2023-04-27T15:15:28.036Z,25.97
2023-04-27T15:17:56.115Z,25.59
2023-04-27T15:20:24.377Z,25.72
2023-04-27T15:22:53.828Z,26.42
2023-04-27T15:25:25.096Z,27.04
2023-04-27T15:27:53.112Z,28.06
2023-04-27T15:30:21.110Z,27.20
2023-04-27T15:32:49.558Z,27.20
2023-04-27T15:35:17.846Z,27.28
2023-04-27T15:37:45.952Z,27.74
2023-04-27T15:40:15.421Z,28.36
2023-04-27T15:42:43.434Z,28.38
2023-04-27T15:45:11.960Z,28.64
2023-04-27T15:47:40.056Z,29.22
2023-04-27T15:50:09.499Z,28.73
2023-04-27T15:52:37.730Z,29.38
2023-04-27T15:55:06.765Z,28.97
2023-04-27T15:57:36.234Z,29.31
2023-04-27T16:00:08.268Z,29.84
2023-04-27T16:02:38.786Z,30.21
2023-04-27T16:05:08.602Z,30.78
2023-04-27T16:07:39.484Z,30.73
2023-04-27T16:10:09.224Z,30.85
2023-04-27T16:12:38.896Z,30.38
2023-04-27T16:15:10.757Z,30.41
2023-04-27T16:17:40.060Z,30.57
2023-04-27T16:20:09.647Z,30.83
2023-04-27T16:22:38.283Z,30.90
2023-04-27T16:25:12.463Z,31.20
2023-04-27T16:27:42.584Z,31.45
2023-04-27T16:30:11.124Z,31.63
2023-04-27T16:32:39.233Z,31.86
2023-04-27T16:35:08.457Z,32.40
2023-04-27T16:37:36.566Z,32.35
2023-04-27T16:40:07.063Z,32.13
2023-04-27T16:42:35.538Z,32.87
2023-04-27T16:45:06.778Z,32.77
2023-04-27T16:47:36.652Z,33.05
2023-04-27T16:50:05.318Z,33.01
2023-04-27T16:52:33.483Z,33.31
2023-04-27T16:55:01.758Z,33.70
2023-04-27T16:57:29.990Z,34.25
2023-04-27T16:59:58.112Z,34.44
2023-04-27T17:02:27.903Z,34.27
2023-04-27T17:04:56.239Z,34.94
2023-04-27T17:07:25.534Z,34.99
2023-04-27T17:09:54.429Z,35.16
2023-04-27T17:12:22.716Z,35.23
2023-04-27T17:14:51.140Z,35.03
2023-04-27T17:17:20.048Z,35.15
2023-04-27T17:19:49.467Z,35.26
2023-04-27T17:22:17.582Z,35.44
2023-04-27T17:24:45.800Z,35.54
2023-04-27T17:27:13.871Z,35.70
2023-04-27T17:29:41.922Z,36.21
2023-04-27T17:32:10.444Z,35.89
2023-04-27T17:54:08.566Z,36.35
2023-04-27T17:56:36.677Z,36.65
2023-04-27T17:59:04.832Z,36.90
2023-04-27T18:01:33.242Z,36.74
2023-04-27T18:04:04.021Z,36.88
2023-04-27T18:06:33.901Z,36.76
2023-04-27T18:09:02.132Z,36.86
2023-04-27T18:11:31.586Z,36.84
2023-04-27T18:13:59.646Z,37.17
2023-04-27T18:16:27.837Z,37.45
2023-04-27T18:18:55.979Z,37.44
2023-04-27T18:21:26.718Z,37.47
2023-04-27T18:23:54.819Z,37.48
2023-04-27T18:26:23.071Z,37.56
2023-04-27T18:28:52.556Z,37.62
2023-04-27T18:31:21.277Z,37.78
2023-04-27T18:33:49.364Z,37.98
2023-04-27T18:36:17.439Z,38.08
2023-04-27T18:38:45.511Z,38.33
2023-04-27T18:41:13.552Z,38.72
2023-04-27T18:43:41.596Z,39.36
2023-04-27T18:46:11.015Z,40.01
2023-04-27T18:48:39.117Z,40.56
2023-04-27T18:51:07.225Z,41.05
2023-04-27T18:53:35.440Z,41.53
2023-04-27T18:56:03.510Z,42.57
2023-04-27T18:58:31.625Z,43.12
2023-04-27T19:00:59.711Z,43.26
2023-04-27T19:03:29.302Z,43.54
2023-04-27T19:05:58.751Z,43.96
2023-04-27T19:08:26.843Z,43.93
2023-04-27T19:10:54.901Z,44.12
2023-04-27T19:13:22.949Z,44.16
2023-04-27T19:15:51.541Z,44.13
2023-04-27T19:18:19.707Z,44.34
2023-04-27T19:20:49.931Z,44.53
2023-04-27T19:23:19.221Z,44.37
2023-04-27T19:25:48.325Z,44.41
2023-04-27T19:28:18.792Z,44.46
2023-04-27T19:30:47.696Z,44.49
2023-04-27T19:33:20.500Z,44.73
2023-04-27T19:35:52.364Z,44.75
2023-04-27T19:38:22.473Z,45.07
2023-04-27T19:40:50.577Z,45.12
2023-04-27T19:43:19.762Z,44.96
2023-04-27T19:45:49.168Z,44.80
2023-04-27T19:48:17.556Z,44.70
2023-04-27T19:50:45.816Z,44.90
2023-04-27T19:53:16.102Z,44.99
2023-04-27T19:55:44.318Z,44.92
2023-04-27T19:58:12.426Z,45.05
2023-04-27T20:00:40.622Z,45.08
2023-04-27T20:03:09.036Z,45.16
2023-04-27T20:05:38.543Z,45.48
2023-04-27T20:08:07.874Z,45.45
2023-04-27T20:10:37.761Z,45.39
2023-04-27T20:13:06.087Z,45.35
2023-04-27T20:18:38.094Z,45.41
2023-04-27T20:21:06.345Z,45.42
2023-04-27T20:23:34.586Z,45.52
2023-04-27T20:26:04.595Z,45.61
2023-04-27T20:28:32.639Z,45.58
2023-04-27T20:31:00.725Z,45.58
2023-04-27T20:33:28.822Z,45.73
2023-04-27T20:36:03.685Z,45.65
2023-04-27T20:38:38.376Z,45.50
2023-04-27T20:41:08.673Z,45.46
2023-04-27T20:43:39.140Z,45.58
2023-04-27T20:46:07.737Z,45.33
2023-04-27T20:48:36.245Z,45.29
2023-04-27T20:51:04.567Z,45.20
2023-04-27T20:53:32.589Z,45.09
2023-04-27T20:56:00.674Z,44.93
2023-04-27T20:58:30.083Z,44.74
2023-04-27T21:00:58.202Z,44.72
2023-04-27T21:03:26.409Z,44.68
2023-04-27T21:05:54.682Z,44.65
2023-04-27T21:08:22.724Z,44.78
2023-04-27T21:10:53.940Z,44.84
2023-04-27T21:13:22.056Z,45.32
2023-04-27T21:15:51.437Z,45.28
2023-04-27T21:18:29.603Z,45.48
2023-04-27T21:20:58.158Z,45.55
2023-04-27T21:23:26.311Z,45.70
2023-04-27T21:25:54.335Z,45.73
2023-04-27T21:28:22.414Z,45.75
2023-04-27T21:30:51.902Z,45.73
2023-04-27T21:33:20.120Z,45.71
2023-04-27T21:35:48.161Z,45.75
2023-04-27T21:38:16.209Z,45.78
2023-04-27T21:40:44.268Z,45.83
2023-04-27T21:43:12.337Z,46.01
2023-04-27T21:45:40.474Z,46.09
2023-04-27T21:48:10.397Z,46.28
2023-04-27T21:50:38.520Z,46.23
2023-04-27T21:53:06.603Z,46.57
2023-04-27T21:55:34.616Z,46.54
2023-04-27T21:58:02.663Z,46.52
2023-04-27T22:00:30.695Z,46.59
2023-04-27T22:02:58.950Z,46.77
2023-04-27T22:05:29.324Z,46.82
2023-04-27T22:07:58.154Z,46.91
2023-04-27T22:10:26.244Z,46.98
2023-04-27T22:12:54.789Z,46.80
2023-04-27T22:15:23.133Z,46.94
2023-04-27T22:17:51.290Z,47.02
2023-04-27T22:20:19.642Z,47.06
2023-04-27T22:22:49.112Z,47.11
2023-04-27T22:25:17.260Z,47.23
2023-04-27T22:27:45.755Z,47.38
2023-04-27T22:30:15.483Z,47.56
2023-04-27T22:32:43.620Z,47.65
2023-04-27T22:35:24.731Z,47.73
2023-04-27T22:37:55.870Z,47.69
2023-04-27T22:40:24.516Z,47.76
2023-04-27T22:42:52.752Z,47.93
2023-04-27T22:45:20.786Z,48.03
2023-04-27T22:47:49.517Z,48.15
2023-04-27T22:50:17.907Z,48.50
2023-04-27T22:52:46.078Z,48.56
2023-04-27T22:55:15.538Z,48.53
2023-04-27T22:57:44.844Z,48.46
2023-04-27T23:00:13.740Z,48.35
2023-04-27T23:02:42.693Z,48.37
2023-04-27T23:05:12.418Z,48.48
2023-04-27T23:07:42.828Z,48.61
2023-04-27T23:10:13.006Z,48.84
2023-04-27T23:12:42.454Z,48.94
2023-04-27T23:15:11.163Z,49.01
2023-04-27T23:17:39.264Z,48.99
2023-04-27T23:20:24.104Z,49.08
2023-04-27T23:22:55.177Z,49.21
2023-04-27T23:25:23.333Z,49.44
2023-04-27T23:27:53.146Z,49.47
2023-04-27T23:30:21.992Z,49.48
2023-04-27T23:32:50.270Z,49.61
2023-04-27T23:35:18.499Z,49.54
2023-04-27T23:37:46.521Z,49.55
2023-04-27T23:40:14.608Z,49.59
2023-04-27T23:42:42.626Z,49.81
2023-04-27T23:45:12.715Z,49.70
2023-04-27T23:47:40.964Z,49.72
2023-04-27T23:50:09.783Z,49.76
2023-04-27T23:52:37.867Z,49.83
2023-04-27T23:55:07.127Z,49.92
2023-04-27T23:57:35.190Z,49.98
